Emma Bardán — ECJU — position and weather

sailwx.info

Track history (hours):
 
Tides and Currents Weather Stations Pressure Air Temp Water Temp Dewpoint Dewpoint Depression Visibility Wind Speed Wind Dir Waves Ship Positions

Oceanographic research ship Emma Bardán (Spain)

Ship's website: http://www.mapa.es/es/pesca/pags/emma_web/index.htm

Last reported at 2019-Jun-19 21:15 UTC. Time now 2019-Jun-19 21:54 UTC.
Position N 43°19' W 001°56'.

Length 29 m; draft 3.6 m.

Type: . MMSI: 224756000.

Date/timePositionNaut miles runAvg speedWind from/ knotsBaromVisibWave heightAir tempDewpointWater temp
2019-Jun-19 21:15N 43°19' W 001°56'0 0.0
2019-Jun-19 20:58N 43°19' W 001°56'0 0.0
2019-Jun-19 20:31N 43°19' W 001°56'0 0.0
2019-Jun-19 20:00N 43°19' W 001°56'0 0.0
2019-Jun-19 19:31N 43°19' W 001°56'0 0.0
2019-Jun-19 19:00N 43°19' W 001°56'0 0.0
2019-Jun-19 18:30N 43°19' W 001°56'0 0.0
2019-Jun-19 18:01N 43°19' W 001°56'0 0.0
2019-Jun-19 17:31N 43°19' W 001°56'0 0.0
2019-Jun-19 17:00N 43°19' W 001°56'0 0.0
2019-Jun-19 16:30N 43°19' W 001°56'0 0.0
2019-Jun-19 16:00N 43°19' W 001°56'0 0.0
2019-Jun-19 15:31N 43°19' W 001°56'0 0.0
2019-Jun-19 15:01N 43°19' W 001°56'1 2.3
2019-Jun-19 14:31N 43°20' W 001°56'2 3.9
2019-Jun-19 14:01N 43°22' W 001°57'3 5.3
2019-Jun-19 13:31N 43°25' W 001°58'2 3.6
2019-Jun-19 13:00N 43°26' W 001°59'1 2.5
2019-Jun-19 12:31N 43°25' W 002°00'1 2.2
2019-Jun-19 12:01N 43°24' W 002°01'0 0.5
2019-Jun-19 11:31N 43°25' W 002°01'0 0.3
2019-Jun-19 11:01N 43°25' W 002°01'3 5.3
2019-Jun-19 10:31N 43°27' W 001°58'0 0.8
2019-Jun-19 10:01N 43°27' W 001°58'1 2.9
2019-Jun-19 09:30N 43°26' W 001°60'2 3.6
2019-Jun-19 09:01N 43°25' W 002°01'4 7.1
2019-Jun-19 08:31N 43°28' W 001°58'1 1.4
2019-Jun-19 08:01N 43°27' W 001°58'1 2.9
2019-Jun-19 07:31N 43°26' W 001°60'2 3.5
2019-Jun-19 07:01N 43°25' W 002°01'5 9.4
2019-Jun-19 06:30N 43°21' W 001°57'2 0.8
2019-Jun-19 03:50N 43°19' W 001°56'0 0.0
2019-Jun-19 03:27N 43°19' W 001°56'0 0.0
2019-Jun-19 02:51N 43°19' W 001°56'0 0.0
2019-Jun-19 02:00N 43°19' W 001°56'0 0.0
2019-Jun-19 01:31N 43°19' W 001°56'0 0.0
2019-Jun-19 01:00N 43°19' W 001°56'0 0.0
2019-Jun-19 00:31N 43°19' W 001°56'0 0.0
2019-Jun-19 00:00N 43°19' W 001°56'0 0.0
2019-Jun-18 23:30N 43°19' W 001°56'0 0.0
2019-Jun-18 23:01N 43°19' W 001°56'0 0.0
2019-Jun-18 22:30N 43°19' W 001°56'0 0.0
2019-Jun-18 22:00N 43°19' W 001°56'0 0.0
2019-Jun-18 21:31N 43°19' W 001°56'0 0.0
2019-Jun-18 21:01N 43°19' W 001°56'0 0.0
2019-Jun-18 20:31N 43°19' W 001°56'0 0.0
2019-Jun-18 20:00N 43°19' W 001°56'0 0.0
2019-Jun-18 19:30N 43°19' W 001°56'0 0.0
2019-Jun-18 19:00N 43°19' W 001°56'0 0.0
2019-Jun-18 18:30N 43°19' W 001°56'0 0.0
2019-Jun-18 18:00N 43°19' W 001°56'0 0.0
2019-Jun-18 17:30N 43°19' W 001°56'0 0.0
2019-Jun-18 17:00N 43°19' W 001°56'0 0.0
2019-Jun-18 16:31N 43°19' W 001°56'2 5.0
2019-Jun-18 16:00N 43°22' W 001°56'510.2
2019-Jun-18 15:31N 43°27' W 001°57'1 1.3
2019-Jun-18 15:01N 43°27' W 001°58'1 2.9
2019-Jun-18 14:31N 43°26' W 001°59'2 3.6
2019-Jun-18 14:01N 43°25' W 002°01'4 7.6
2019-Jun-18 13:31N 43°28' W 001°57'1 1.6
2019-Jun-18 13:01N 43°27' W 001°58'1 2.9
2019-Jun-18 12:31N 43°26' W 001°60'2 3.5
2019-Jun-18 12:01N 43°25' W 002°02'0 0.1
2019-Jun-18 11:31N 43°25' W 002°02'0 0.1
2019-Jun-18 11:01N 43°25' W 002°01'3 5.9
2019-Jun-18 10:31N 43°27' W 001°59'1 1.0
2019-Jun-18 10:01N 43°27' W 001°59'1 2.3
2019-Jun-18 09:31N 43°26' W 001°60'2 3.4
2019-Jun-18 09:01N 43°25' W 002°01'1 2.8
2019-Jun-18 08:31N 43°26' W 002°00'2 3.8
2019-Jun-18 08:01N 43°27' W 001°59'1 2.2
2019-Jun-18 07:30N 43°26' W 001°59'2 3.6
2019-Jun-18 07:01N 43°25' W 002°01'3 6.6
2019-Jun-18 06:31N 43°22' W 001°58'4 7.2
2019-Jun-18 06:01N 43°19' W 001°56'0 0.0
2019-Jun-18 05:30N 43°19' W 001°56'0 0.0
2019-Jun-18 05:01N 43°19' W 001°56'0 0.0
2019-Jun-18 04:31N 43°19' W 001°56'0 0.0
2019-Jun-18 04:01N 43°19' W 001°56'0 0.0
2019-Jun-18 03:30N 43°19' W 001°56'0 0.0
2019-Jun-18 03:01N 43°19' W 001°56'0 0.0
2019-Jun-18 02:30N 43°19' W 001°56'0 0.0
2019-Jun-18 02:01N 43°19' W 001°56'0 0.0
2019-Jun-18 01:30N 43°19' W 001°56'0 0.0
2019-Jun-18 01:01N 43°19' W 001°56'0 0.0
2019-Jun-18 00:31N 43°19' W 001°56'0 0.0
2019-Jun-18 00:01N 43°19' W 001°56'0 0.0
2019-Jun-17 23:31N 43°19' W 001°56'0 0.0
2019-Jun-17 23:01N 43°19' W 001°56'0 0.0
2019-Jun-17 22:31N 43°19' W 001°56'0 0.0
2019-Jun-17 22:00N 43°19' W 001°56'0 0.0
2019-Jun-17 21:48N 43°19' W 001°56'0 0.0
2019-Jun-17 21:45N 43°19' W 001°56'0 0.0
2019-Jun-17 21:37N 43°19' W 001°56'0 0.0
2019-Jun-17 21:21N 43°19' W 001°56'0 0.0
2019-Jun-17 21:00N 43°19' W 001°56'0 0.0
2019-Jun-17 20:30N 43°19' W 001°56'0 0.0
2019-Jun-17 20:00N 43°19' W 001°56'6 0.3
2019-Jun-16 23:31N 43°25' W 001°57'0 0.8
2019-Jun-16 23:01N 43°25' W 001°58'0 0.7
2019-Jun-16 22:31N 43°25' W 001°58'0 0.6
2019-Jun-16 22:01N 43°25' W 001°59'0 0.5
2019-Jun-16 21:31N 43°25' W 001°59'0 0.4
2019-Jun-16 21:01N 43°25' W 001°59'0 0.5
2019-Jun-16 20:31N 43°26' W 001°59'2 4.0
2019-Jun-16 20:01N 43°28' W 001°59'1 2.4
2019-Jun-16 19:31N 43°26' W 001°59'1 1.9
2019-Jun-16 19:01N 43°27' W 001°59'1 2.1
2019-Jun-16 18:31N 43°26' W 001°59'2 3.1
2019-Jun-16 18:01N 43°25' W 002°01'1 3.0
2019-Jun-16 17:31N 43°24' W 002°03'0 0.4
2019-Jun-16 17:01N 43°24' W 002°02'0 0.5
2019-Jun-16 16:31N 43°24' W 002°02'0 0.5
2019-Jun-16 16:01N 43°25' W 002°02'0 0.7
2019-Jun-16 15:31N 43°25' W 002°01'0 0.7
2019-Jun-16 15:01N 43°25' W 002°01'0 0.7
2019-Jun-16 14:31N 43°25' W 002°00'0 0.7
2019-Jun-16 14:01N 43°25' W 002°00'2 3.2
2019-Jun-16 13:31N 43°27' W 001°59'0 0.9
2019-Jun-16 13:01N 43°27' W 001°59'1 2.2
2019-Jun-16 12:31N 43°26' W 001°60'2 3.5
2019-Jun-16 12:01N 43°25' W 002°01'0 0.6
2019-Jun-16 11:31N 43°24' W 002°02'0 0.5
2019-Jun-16 11:01N 43°25' W 002°01'3 6.8
2019-Jun-16 10:31N 43°28' W 001°60'1 2.8
2019-Jun-16 10:00N 43°27' W 001°58'1 2.7
2019-Jun-16 09:31N 43°26' W 001°60'1 2.5
2019-Jun-16 09:01N 43°25' W 002°01'3 6.4
2019-Jun-16 08:31N 43°28' W 001°59'1 2.4
2019-Jun-16 08:01N 43°27' W 001°58'1 2.8
2019-Jun-16 07:31N 43°26' W 001°60'2 3.5
2019-Jun-16 07:00N 43°25' W 002°01'5 9.7
2019-Jun-16 06:31N 43°21' W 001°57'2 3.1
2019-Jun-16 05:56N 43°19' W 001°56'0 0.0
2019-Jun-16 04:41N 43°19' W 001°56'0 0.0
2019-Jun-16 04:22N 43°19' W 001°56'0 0.0
2019-Jun-16 03:57N 43°19' W 001°56'0 0.0
2019-Jun-16 03:10N 43°19' W 001°56'0 0.0
2019-Jun-16 02:51N 43°19' W 001°56'0 0.0
2019-Jun-16 02:21N 43°19' W 001°56'0 0.0
2019-Jun-16 01:52N 43°19' W 001°56'0 0.0
2019-Jun-16 01:29N 43°19' W 001°56'0 0.0
2019-Jun-16 01:01N 43°19' W 001°56'0 0.0
2019-Jun-16 00:30N 43°19' W 001°56'0 0.0
2019-Jun-16 00:00N 43°19' W 001°56'0 0.0
2019-Jun-15 23:30N 43°19' W 001°56'0 0.0
2019-Jun-15 23:01N 43°19' W 001°56'0 0.0
2019-Jun-15 22:31N 43°19' W 001°56'0 0.0
2019-Jun-15 22:01N 43°19' W 001°56'4 7.6
2019-Jun-15 21:30N 43°23' W 001°57'4 7.6
2019-Jun-15 21:00N 43°27' W 001°59'1 2.5
2019-Jun-15 20:31N 43°26' W 001°60'2 3.0
2019-Jun-15 20:00N 43°25' W 002°01'0 0.7
2019-Jun-15 19:31N 43°25' W 002°01'2 3.4
2019-Jun-15 19:01N 43°26' W 001°59'0 0.4
2019-Jun-15 18:31N 43°26' W 001°60'1 2.8
2019-Jun-15 18:01N 43°25' W 002°01'3 6.5
2019-Jun-15 17:31N 43°22' W 001°58'4 7.3
2019-Jun-15 17:00N 43°19' W 001°56'0 0.0
2019-Jun-15 16:30N 43°19' W 001°56'0 0.0
2019-Jun-15 16:00N 43°19' W 001°56'0 0.0
2019-Jun-15 15:30N 43°19' W 001°56'0 0.0
2019-Jun-15 15:00N 43°19' W 001°56'0 0.0
2019-Jun-15 14:30N 43°19' W 001°56'0 0.0
2019-Jun-15 14:00N 43°19' W 001°56'0 0.0
2019-Jun-15 13:30N 43°19' W 001°56'0 0.0
2019-Jun-15 13:00N 43°19' W 001°56'0 0.0
2019-Jun-15 12:31N 43°19' W 001°56'0 0.0
2019-Jun-15 12:00N 43°19' W 001°56'0 0.0
2019-Jun-15 11:30N 43°19' W 001°56'0 0.0
2019-Jun-15 10:59N 43°19' W 001°56'0 0.0
2019-Jun-15 10:31N 43°19' W 001°56'0 0.0
2019-Jun-15 10:00N 43°19' W 001°56'0 0.0
2019-Jun-15 09:30N 43°19' W 001°56'0 0.0
2019-Jun-15 08:59N 43°19' W 001°56'0 0.0
2019-Jun-15 08:30N 43°19' W 001°56'0 0.0
2019-Jun-15 07:45N 43°19' W 001°56'0 0.0
2019-Jun-15 07:28N 43°19' W 001°56'0 0.0
2019-Jun-15 07:00N 43°19' W 001°56'0 0.0
2019-Jun-15 06:30N 43°19' W 001°56'0 0.0
2019-Jun-15 06:01N 43°19' W 001°56'0 0.0
2019-Jun-15 05:30N 43°19' W 001°56'0 0.0
2019-Jun-15 05:00N 43°19' W 001°56'0 0.0
2019-Jun-15 04:30N 43°19' W 001°56'0 0.0
2019-Jun-15 04:00N 43°19' W 001°56'0 0.0
2019-Jun-15 03:30N 43°19' W 001°56'0 0.0
2019-Jun-15 02:57N 43°19' W 001°56'0 0.0
2019-Jun-15 02:29N 43°19' W 001°56'0 0.0
2019-Jun-15 01:51N 43°19' W 001°56'0 0.0
2019-Jun-15 01:31N 43°19' W 001°56'0 0.0
2019-Jun-15 01:00N 43°19' W 001°56'0 0.0
2019-Jun-15 00:29N 43°19' W 001°56'0 0.0
2019-Jun-14 23:58N 43°19' W 001°56'0 0.0
2019-Jun-14 23:29N 43°19' W 001°56'0 0.0
2019-Jun-14 23:00N 43°19' W 001°56'0 0.0
2019-Jun-14 22:30N 43°19' W 001°56'0 0.0
2019-Jun-14 21:58N 43°19' W 001°56'0 0.0
2019-Jun-14 21:30N 43°19' W 001°56'0 0.0
2019-Jun-14 21:00N 43°19' W 001°56'0 0.0
2019-Jun-14 20:30N 43°19' W 001°56'0 0.0
2019-Jun-14 20:00N 43°19' W 001°56'0 0.0
2019-Jun-14 19:29N 43°19' W 001°56'0 0.0
2019-Jun-14 18:58N 43°19' W 001°56'0 0.0
2019-Jun-14 18:28N 43°19' W 001°56'0 0.0
2019-Jun-14 18:00N 43°19' W 001°56'0 0.0
2019-Jun-14 17:30N 43°19' W 001°56'0 0.0
2019-Jun-14 17:01N 43°19' W 001°56'0 0.0
2019-Jun-14 16:31N 43°19' W 001°56'0 0.0
2019-Jun-14 16:00N 43°19' W 001°56'0 0.0
2019-Jun-14 15:30N 43°19' W 001°56'2 3.3
2019-Jun-14 15:01N 43°21' W 001°56'1 2.7
2019-Jun-14 14:31N 43°22' W 001°58'0 0.1
2019-Jun-14 14:01N 43°22' W 001°58'0 0.1
2019-Jun-14 13:31N 43°22' W 001°58'1 2.1
2019-Jun-14 13:01N 43°22' W 001°57'4 8.0
2019-Jun-14 12:31N 43°25' W 001°54'510.4
2019-Jun-14 12:01N 43°30' W 001°51'510.7
2019-Jun-14 11:31N 43°35' W 001°49'510.8
2019-Jun-14 11:01N 43°40' W 001°47'510.7
2019-Jun-14 10:30N 43°45' W 001°44'5 9.1
2019-Jun-14 10:00N 43°50' W 001°43'1 2.6
2019-Jun-14 09:31N 43°51' W 001°44'1 1.6
2019-Jun-14 09:01N 43°50' W 001°44'1 2.9
2019-Jun-14 08:31N 43°48' W 001°44'1 1.7
2019-Jun-14 08:01N 43°48' W 001°43'3 5.7
2019-Jun-14 07:31N 43°50' W 001°41'1 2.8
2019-Jun-14 07:01N 43°49' W 001°41'2 3.7
2019-Jun-14 06:31N 43°47' W 001°41'1 1.3
2019-Jun-14 06:01N 43°46' W 001°41'1 1.1
2019-Jun-14 05:31N 43°46' W 001°42'3 5.8
2019-Jun-14 05:01N 43°43' W 001°44'3 6.0
2019-Jun-14 04:30N 43°40' W 001°46'3 6.2
2019-Jun-14 04:00N 43°38' W 001°48'3 5.9
2019-Jun-14 03:31N 43°35' W 001°50'3 6.0
2019-Jun-14 03:01N 43°32' W 001°52'3 6.0
2019-Jun-14 02:31N 43°30' W 001°54'3 5.2
2019-Jun-14 02:01N 43°28' W 001°56'3 5.1
2019-Jun-14 01:31N 43°26' W 001°58'2 4.6
2019-Jun-14 01:00N 43°24' W 001°59'2 3.1
2019-Jun-14 00:31N 43°22' W 001°60'0 0.4
2019-Jun-14 00:01N 43°22' W 001°60'0 0.5
2019-Jun-13 23:31N 43°22' W 002°00'0 0.5
2019-Jun-13 23:00N 43°23' W 002°00'0 0.6
2019-Jun-13 22:31N 43°23' W 002°01'0 0.7
2019-Jun-13 22:00N 43°23' W 002°01'0 0.7
2019-Jun-13 21:31N 43°23' W 002°01'0 0.7
2019-Jun-13 21:01N 43°24' W 002°02'6 3.3
2019-Jun-13 19:11N 43°28' W 001°56'0 2.2
2019-Jun-13 19:00N 43°28' W 001°56'1 2.7
2019-Jun-13 18:30N 43°28' W 001°58'2 3.5
2019-Jun-13 18:01N 43°28' W 002°01'1 1.9
2019-Jun-13 17:31N 43°28' W 001°59'2 4.3
2019-Jun-13 17:01N 43°28' W 001°57'0 0.1
2019-Jun-13 16:31N 43°28' W 001°57'0 0.5
2019-Jun-13 16:01N 43°28' W 001°57'0 0.4
2019-Jun-13 15:31N 43°28' W 001°57'0 0.4
2019-Jun-13 15:00N 43°28' W 001°57'0 0.3
2019-Jun-13 14:31N 43°28' W 001°58'0 0.3
2019-Jun-13 14:01N 43°28' W 001°58'0 0.2
2019-Jun-13 13:30N 43°28' W 001°58'1 2.4
2019-Jun-13 13:01N 43°27' W 001°57'1 2.3
2019-Jun-13 12:30N 43°27' W 001°59'2 3.7
2019-Jun-13 12:01N 43°26' W 002°01'1 1.1
2019-Jun-13 11:31N 43°25' W 002°01'2 4.4
2019-Jun-13 11:01N 43°25' W 001°58'1 2.7
2019-Jun-13 10:31N 43°26' W 001°58'1 2.2
2019-Jun-13 10:01N 43°27' W 001°56'1 2.5
2019-Jun-13 09:31N 43°27' W 001°58'2 3.3
2019-Jun-13 09:01N 43°26' W 002°00'2 3.7
2019-Jun-13 08:31N 43°27' W 001°59'1 1.1
2019-Jun-13 08:01N 43°27' W 001°58'1 2.3
2019-Jun-13 07:31N 43°26' W 001°59'2 4.0
2019-Jun-13 07:01N 43°25' W 002°01'5 9.1
2019-Jun-13 06:31N 43°21' W 001°57'2 4.2
2019-Jun-13 06:00N 43°19' W 001°56'0 0.0
2019-Jun-13 05:30N 43°19' W 001°56'0 0.0
2019-Jun-13 05:01N 43°19' W 001°56'0 0.0
2019-Jun-13 04:31N 43°19' W 001°56'0 0.0
2019-Jun-13 04:00N 43°19' W 001°56'0 0.0
2019-Jun-13 03:31N 43°19' W 001°56'0 0.0
2019-Jun-13 03:01N 43°19' W 001°56'0 0.0
2019-Jun-13 02:31N 43°19' W 001°56'0 0.0
2019-Jun-13 02:00N 43°19' W 001°56'0 0.0
2019-Jun-13 01:30N 43°19' W 001°56'0 0.0
2019-Jun-13 01:00N 43°19' W 001°56'0 0.0
2019-Jun-13 00:30N 43°19' W 001°56'0 0.0
2019-Jun-12 23:59N 43°19' W 001°56'0 0.0
2019-Jun-12 23:29N 43°19' W 001°56'0 0.0
2019-Jun-12 21:52N 43°19' W 001°56'0 0.0
2019-Jun-12 21:27N 43°19' W 001°56'0 0.0
2019-Jun-12 20:59N 43°19' W 001°56'0 0.0
2019-Jun-12 20:30N 43°19' W 001°56'0 0.0
2019-Jun-12 20:00N 43°19' W 001°56'0 0.0
2019-Jun-12 19:29N 43°19' W 001°56'0 0.0
2019-Jun-12 19:00N 43°19' W 001°56'0 0.0
2019-Jun-12 18:31N 43°19' W 001°56'0 0.0
2019-Jun-12 18:00N 43°19' W 001°56'0 0.0
2019-Jun-12 17:30N 43°19' W 001°56'0 0.0
2019-Jun-12 17:01N 43°19' W 001°56'0 0.0
2019-Jun-12 16:30N 43°19' W 001°56'0 0.0
2019-Jun-12 16:00N 43°19' W 001°56'0 0.0
2019-Jun-12 15:31N 43°19' W 001°56'0 0.0
2019-Jun-12 15:01N 43°19' W 001°56'0 0.0
2019-Jun-12 14:29N 43°19' W 001°56'0 0.0
2019-Jun-12 14:00N 43°19' W 001°56'0 0.0
2019-Jun-12 13:28N 43°19' W 001°56'0 0.0
2019-Jun-12 13:00N 43°19' W 001°56'0 0.0
2019-Jun-12 12:30N 43°19' W 001°56'0 0.0
2019-Jun-12 12:00N 43°19' W 001°56'0 0.0
2019-Jun-12 11:29N 43°19' W 001°56'0 0.0
2019-Jun-12 10:58N 43°19' W 001°56'0 0.0
2019-Jun-12 10:29N 43°19' W 001°56'0 0.0
2019-Jun-12 10:00N 43°19' W 001°56'0 0.0
2019-Jun-12 09:29N 43°19' W 001°56'0 0.0
2019-Jun-12 09:00N 43°19' W 001°56'0 0.0
2019-Jun-12 08:29N 43°19' W 001°56'0 0.0
2019-Jun-12 08:00N 43°19' W 001°56'0 0.0
2019-Jun-12 07:30N 43°19' W 001°56'0 0.0
2019-Jun-12 07:00N 43°19' W 001°56'0 0.0
2019-Jun-12 06:31N 43°19' W 001°56'0 0.0
2019-Jun-12 06:01N 43°19' W 001°56'0 0.0
2019-Jun-12 05:31N 43°19' W 001°56'0 0.0
2019-Jun-12 05:01N 43°19' W 001°56'0 0.0
2019-Jun-12 04:30N 43°19' W 001°56'0 0.0
2019-Jun-12 04:00N 43°19' W 001°56'0 0.0
2019-Jun-12 03:30N 43°19' W 001°56'0 0.0
2019-Jun-12 02:52N 43°19' W 001°56'0 0.0
2019-Jun-12 02:01N 43°19' W 001°56'0 0.0
2019-Jun-12 01:30N 43°19' W 001°56'0 0.0
2019-Jun-12 01:00N 43°19' W 001°56'0 0.0
2019-Jun-12 00:30N 43°19' W 001°56'0 0.0
2019-Jun-12 00:00N 43°19' W 001°56'0 0.0
2019-Jun-11 23:30N 43°19' W 001°56'0 0.0
2019-Jun-11 23:00N 43°19' W 001°56'0 0.0
2019-Jun-11 22:30N 43°19' W 001°56'0 0.0
2019-Jun-11 22:00N 43°19' W 001°56'0 0.0
2019-Jun-11 21:30N 43°19' W 001°56'0 0.0
2019-Jun-11 21:00N 43°19' W 001°56'0 0.0
2019-Jun-11 20:31N 43°19' W 001°56'0 0.0
2019-Jun-11 20:00N 43°19' W 001°56'0 0.0
2019-Jun-11 19:31N 43°19' W 001°56'0 0.0
2019-Jun-11 19:00N 43°19' W 001°56'0 0.0
2019-Jun-11 18:30N 43°19' W 001°56'0 0.0
2019-Jun-11 18:00N 43°19' W 001°56'0 0.0
2019-Jun-11 17:30N 43°19' W 001°56'0 0.0
2019-Jun-11 15:49N 43°19' W 001°56'0 0.0
2019-Jun-11 15:30N 43°19' W 001°56'0 0.0
2019-Jun-11 15:00N 43°19' W 001°56'0 0.0
2019-Jun-11 14:30N 43°19' W 001°56'0 0.0
2019-Jun-11 14:00N 43°19' W 001°56'0 0.0
2019-Jun-11 13:30N 43°19' W 001°56'0 0.0
2019-Jun-11 13:00N 43°19' W 001°56'0 0.0
2019-Jun-11 12:30N 43°19' W 001°56'0 0.0
2019-Jun-11 11:46N 43°19' W 001°56'0 0.0
2019-Jun-11 11:25N 43°19' W 001°56'0 0.0
2019-Jun-11 10:59N 43°19' W 001°56'0 0.0
2019-Jun-11 10:27N 43°19' W 001°56'0 0.0
2019-Jun-11 10:00N 43°19' W 001°56'0 0.0
2019-Jun-11 09:30N 43°19' W 001°56'0 0.0
2019-Jun-11 09:00N 43°19' W 001°56'0 0.0
2019-Jun-11 08:30N 43°19' W 001°56'0 0.0
2019-Jun-11 08:00N 43°19' W 001°56'0 0.0
2019-Jun-11 07:29N 43°19' W 001°56'0 0.0
2019-Jun-11 07:00N 43°19' W 001°56'0 0.0
2019-Jun-11 06:30N 43°19' W 001°56'0 0.0
2019-Jun-11 06:00N 43°19' W 001°56'0 0.0
2019-Jun-11 05:30N 43°19' W 001°56'0 0.0
2019-Jun-11 05:00N 43°19' W 001°56'0 0.0
2019-Jun-11 04:30N 43°19' W 001°56'0 0.0
2019-Jun-11 04:01N 43°19' W 001°56'0 0.0
2019-Jun-11 03:29N 43°19' W 001°56'0 0.0
2019-Jun-11 03:00N 43°19' W 001°56'0 0.0
2019-Jun-11 02:30N 43°19' W 001°56'0 0.0
2019-Jun-11 02:00N 43°19' W 001°56'0 0.0
2019-Jun-11 01:30N 43°19' W 001°56'0 0.0
2019-Jun-11 01:01N 43°19' W 001°56'0 0.0
2019-Jun-11 00:31N 43°19' W 001°56'0 0.0
2019-Jun-11 00:00N 43°19' W 001°56'0 0.0
2019-Jun-10 23:30N 43°19' W 001°56'0 0.0
2019-Jun-10 23:00N 43°19' W 001°56'0 0.0
2019-Jun-10 22:30N 43°19' W 001°56'0 0.0
2019-Jun-10 22:00N 43°19' W 001°56'0 0.0
2019-Jun-10 21:30N 43°19' W 001°56'0 0.0
2019-Jun-10 21:00N 43°19' W 001°56'0 0.0
2019-Jun-10 19:59N 43°19' W 001°56'0 0.0
2019-Jun-10 19:05N 43°19' W 001°56'0 4.7
2019-Jun-10 19:00N 43°19' W 001°55'5 9.3
2019-Jun-10 18:31N 43°24' W 001°55'510.5
2019-Jun-10 18:01N 43°29' W 001°53'510.8
2019-Jun-10 17:30N 43°35' W 001°51'510.7
2019-Jun-10 17:01N 43°40' W 001°49'611.1
2019-Jun-10 16:31N 43°45' W 001°48'611.0
2019-Jun-10 16:00N 43°50' W 001°46'510.8
2019-Jun-10 15:30N 43°56' W 001°44'2 4.1
2019-Jun-10 15:00N 43°58' W 001°44'1 2.9
2019-Jun-10 14:31N 43°59' W 001°43'2 3.4
2019-Jun-10 14:00N 44°01' W 001°43'3 6.6
2019-Jun-10 13:31N 43°60' W 001°38'1 2.5
2019-Jun-10 13:00N 43°59' W 001°39'1 2.9
2019-Jun-10 12:31N 43°57' W 001°39'1 2.4
2019-Jun-10 12:00N 43°56' W 001°39'2 4.2
2019-Jun-10 11:30N 43°55' W 001°36'1 2.5
2019-Jun-10 11:01N 43°56' W 001°38'2 4.9
2019-Jun-10 10:30N 43°57' W 001°41'1 1.2
2019-Jun-10 10:01N 43°56' W 001°40'1 2.2
2019-Jun-10 09:30N 43°55' W 001°41'1 2.9
2019-Jun-10 09:01N 43°54' W 001°41'2 3.3
2019-Jun-10 08:31N 43°52' W 001°41'1 2.5
2019-Jun-10 08:01N 43°51' W 001°41'1 2.7
2019-Jun-10 07:31N 43°50' W 001°41'1 2.9
2019-Jun-10 07:00N 43°48' W 001°41'2 3.6
2019-Jun-10 06:31N 43°46' W 001°41'1 2.2
2019-Jun-10 06:01N 43°48' W 001°41'1 1.9
2019-Jun-10 05:31N 43°47' W 001°42'3 5.5
2019-Jun-10 05:01N 43°44' W 001°43'3 5.6
2019-Jun-10 04:31N 43°42' W 001°45'3 5.7
2019-Jun-10 04:01N 43°39' W 001°47'3 5.7
2019-Jun-10 03:30N 43°37' W 001°49'3 5.2
2019-Jun-10 03:00N 43°34' W 001°51'2 4.9
2019-Jun-10 02:31N 43°32' W 001°53'2 4.4
2019-Jun-10 02:00N 43°30' W 001°54'2 4.4
2019-Jun-10 01:31N 43°29' W 001°56'2 4.3
2019-Jun-10 01:01N 43°27' W 001°57'1 3.0
2019-Jun-10 00:31N 43°28' W 001°58'2 3.8
2019-Jun-10 00:01N 43°26' W 001°57'1 1.2
2019-Jun-09 23:31N 43°26' W 001°57'2 4.6
2019-Jun-09 23:01N 43°28' W 001°58'0 0.9
2019-Jun-09 22:31N 43°27' W 001°58'2 3.9
2019-Jun-09 22:00N 43°26' W 001°56'1 2.4
2019-Jun-09 21:30N 43°27' W 001°57'1 2.7
2019-Jun-09 21:00N 43°25' W 001°56'1 2.7
2019-Jun-09 20:31N 43°27' W 001°57'0 0.8
2019-Jun-09 20:01N 43°27' W 001°57'1 1.8
2019-Jun-09 19:30N 43°27' W 001°57'1 1.4
2019-Jun-09 19:01N 43°27' W 001°58'1 2.8
2019-Jun-09 18:31N 43°26' W 001°60'2 3.4
2019-Jun-09 18:01N 43°25' W 002°01'1 1.4
2019-Jun-09 17:31N 43°24' W 002°00'2 3.1
2019-Jun-09 17:00N 43°25' W 002°02'2 3.6
2019-Jun-09 16:31N 43°25' W 002°00'1 2.0
2019-Jun-09 16:01N 43°25' W 002°01'0 0.2
2019-Jun-09 15:31N 43°25' W 002°01'1 2.9
2019-Jun-09 15:01N 43°24' W 001°59'2 3.8
2019-Jun-09 14:31N 43°26' W 002°00'1 2.8
2019-Jun-09 14:01N 43°27' W 001°59'1 1.7
2019-Jun-09 13:31N 43°27' W 001°58'1 2.1
2019-Jun-09 13:01N 43°26' W 001°59'2 3.2
2019-Jun-09 12:31N 43°25' W 002°00'1 1.7
2019-Jun-09 12:01N 43°25' W 002°01'1 1.9
2019-Jun-09 11:31N 43°25' W 002°00'3 5.4
2019-Jun-09 11:01N 43°28' W 001°59'1 1.4
2019-Jun-09 10:31N 43°27' W 001°58'1 2.3
2019-Jun-09 10:01N 43°26' W 001°59'2 3.6
2019-Jun-09 09:30N 43°25' W 002°01'3 6.7
2019-Jun-09 09:01N 43°27' W 001°57'1 1.6
2019-Jun-09 08:31N 43°27' W 001°58'1 2.9
2019-Jun-09 08:01N 43°26' W 001°60'2 3.4
2019-Jun-09 07:31N 43°25' W 002°01'0 0.4
2019-Jun-09 07:01N 43°24' W 002°01'4 8.1
2019-Jun-09 06:31N 43°21' W 001°57'2 0.8
2019-Jun-09 03:24N 43°19' W 001°56'0 0.0
2019-Jun-08 23:54N 43°19' W 001°56'0 0.0
2019-Jun-08 21:53N 43°19' W 001°56'0 0.0
2019-Jun-08 21:30N 43°19' W 001°56'0 0.0
2019-Jun-08 20:59N 43°19' W 001°56'0 0.0
2019-Jun-08 20:29N 43°19' W 001°56'2 4.0
2019-Jun-08 20:00N 43°21' W 001°56'5 9.7
2019-Jun-08 19:31N 43°26' W 001°57'1 2.1
2019-Jun-08 19:01N 43°27' W 001°58'1 2.8
2019-Jun-08 18:31N 43°26' W 001°60'1 2.7
2019-Jun-08 18:01N 43°25' W 002°01'0 0.3
2019-Jun-08 17:31N 43°25' W 002°01'1 1.1
2019-Jun-08 17:01N 43°25' W 002°01'1 2.0
2019-Jun-08 16:31N 43°26' W 002°00'1 2.8
2019-Jun-08 16:01N 43°26' W 001°58'1 2.2
2019-Jun-08 15:31N 43°27' W 001°58'1 1.4
2019-Jun-08 15:00N 43°27' W 001°58'1 2.8
2019-Jun-08 14:31N 43°26' W 001°60'1 2.7
2019-Jun-08 14:00N 43°24' W 001°60'3 6.8
2019-Jun-08 13:31N 43°28' W 001°59'1 2.3
2019-Jun-08 13:01N 43°27' W 001°58'1 2.5
2019-Jun-08 12:31N 43°26' W 001°60'2 3.4
2019-Jun-08 12:01N 43°24' W 002°01'1 2.0
2019-Jun-08 11:31N 43°25' W 002°01'1 2.2
2019-Jun-08 11:01N 43°25' W 001°59'1 1.1
2019-Jun-08 10:31N 43°26' W 001°59'1 3.0
2019-Jun-08 10:01N 43°27' W 002°01'2 4.3
2019-Jun-08 09:30N 43°26' W 001°58'1 1.6
2019-Jun-08 09:01N 43°26' W 001°59'1 2.6
2019-Jun-08 08:31N 43°28' W 001°59'1 1.9
2019-Jun-08 08:01N 43°27' W 001°58'1 2.6
2019-Jun-08 07:30N 43°26' W 001°60'2 3.4
2019-Jun-08 07:01N 43°24' W 002°01'4 8.2
2019-Jun-08 06:31N 43°21' W 001°57'2 4.1
2019-Jun-08 06:00N 43°19' W 001°56'0 0.0
2019-Jun-08 05:31N 43°19' W 001°56'0 0.0
2019-Jun-08 05:01N 43°19' W 001°56'0 0.0
2019-Jun-08 04:30N 43°19' W 001°56'0 0.0
2019-Jun-08 04:00N 43°19' W 001°56'0 0.0
2019-Jun-08 03:30N 43°19' W 001°56'0 0.0
2019-Jun-08 03:01N 43°19' W 001°56'0 0.0
2019-Jun-08 02:31N 43°19' W 001°56'0 0.0
2019-Jun-08 02:00N 43°19' W 001°56'0 0.0
2019-Jun-08 01:30N 43°19' W 001°56'0 0.0
2019-Jun-08 01:00N 43°19' W 001°56'0 0.0
2019-Jun-08 00:30N 43°19' W 001°56'0 0.0
2019-Jun-08 00:00N 43°19' W 001°56'0 0.0
2019-Jun-07 23:30N 43°19' W 001°56'0 0.0
2019-Jun-07 23:00N 43°19' W 001°56'0 0.0
2019-Jun-07 22:30N 43°19' W 001°56'0 0.0
2019-Jun-07 22:01N 43°19' W 001°56'0 0.0
2019-Jun-07 21:30N 43°19' W 001°56'0 0.0
2019-Jun-07 21:00N 43°19' W 001°56'0 0.0
2019-Jun-07 20:30N 43°19' W 001°56'0 0.0
2019-Jun-07 20:01N 43°19' W 001°56'0 0.0
2019-Jun-07 19:31N 43°19' W 001°56'0 0.0
2019-Jun-07 19:00N 43°19' W 001°56'0 0.0
2019-Jun-07 18:31N 43°19' W 001°56'0 0.0
2019-Jun-07 18:00N 43°19' W 001°56'0 0.0
2019-Jun-07 17:30N 43°19' W 001°56'0 0.0
2019-Jun-07 17:00N 43°19' W 001°56'0 0.0
2019-Jun-07 16:30N 43°19' W 001°56'0 0.0
2019-Jun-07 16:00N 43°19' W 001°56'0 0.0
2019-Jun-07 15:31N 43°19' W 001°56'0 0.0
2019-Jun-07 15:00N 43°19' W 001°56'0 0.0
2019-Jun-07 14:30N 43°19' W 001°56'0 0.0
2019-Jun-07 14:00N 43°19' W 001°56'0 0.0
2019-Jun-07 13:31N 43°19' W 001°56'0 0.0
2019-Jun-07 13:00N 43°19' W 001°56'0 0.0
2019-Jun-07 12:30N 43°19' W 001°56'0 0.0
2019-Jun-07 12:00N 43°19' W 001°56'0 0.0
2019-Jun-07 11:30N 43°19' W 001°56'0 0.0
2019-Jun-07 11:01N 43°19' W 001°56'0 0.0
2019-Jun-07 10:30N 43°19' W 001°56'0 0.0
2019-Jun-07 10:00N 43°19' W 001°56'0 0.0
2019-Jun-07 09:30N 43°19' W 001°56'0 0.0
2019-Jun-07 09:00N 43°19' W 001°56'0 0.0
2019-Jun-07 08:30N 43°19' W 001°56'0 0.0
2019-Jun-07 08:00N 43°19' W 001°56'0 0.0
2019-Jun-07 07:31N 43°19' W 001°56'0 0.0
2019-Jun-07 07:01N 43°19' W 001°56'0 0.0
2019-Jun-07 06:30N 43°19' W 001°56'0 0.0
2019-Jun-07 06:01N 43°19' W 001°56'0 0.0
2019-Jun-07 05:30N 43°19' W 001°56'0 0.0
2019-Jun-07 05:01N 43°19' W 001°56'0 0.0
2019-Jun-07 04:31N 43°19' W 001°56'0 0.0
2019-Jun-07 04:00N 43°19' W 001°56'0 0.0
2019-Jun-07 03:30N 43°19' W 001°56'0 0.0
2019-Jun-07 03:00N 43°19' W 001°56'0 0.0
2019-Jun-07 02:31N 43°19' W 001°56'0 0.0
2019-Jun-07 02:01N 43°19' W 001°56'0 0.0
2019-Jun-07 01:30N 43°19' W 001°56'0 0.0
2019-Jun-07 01:00N 43°19' W 001°56'0 0.0
2019-Jun-07 00:26N 43°19' W 001°56'0 0.0
2019-Jun-07 00:00N 43°19' W 001°56'0 0.0
2019-Jun-06 23:29N 43°19' W 001°56'  
Track history (hours):
 
Tides and Currents Weather Stations Pressure Air Temp Water Temp Dewpoint Dewpoint Depression Visibility Wind Speed Wind Dir Waves Ship Positions

Oceanographic research ship Emma Bardán (Spain)

Ship's website: http://www.mapa.es/es/pesca/pags/emma_web/index.htm

Last reported at 2019-Jun-19 21:15 UTC. Time now 2019-Jun-19 21:54 UTC.
Position N 43°19' W 001°56'.

Length 29 m; draft 3.6 m.

Type: . MMSI: 224756000.

Date/timePositionNaut miles runAvg speedWind from/ knotsBaromVisibWave heightAir tempDewpointWater temp
2019-Jun-19 21:15N 43°19' W 001°56'0 0.0
2019-Jun-19 20:58N 43°19' W 001°56'0 0.0
2019-Jun-19 20:31N 43°19' W 001°56'0 0.0
2019-Jun-19 20:00N 43°19' W 001°56'0 0.0
2019-Jun-19 19:31N 43°19' W 001°56'0 0.0
2019-Jun-19 19:00N 43°19' W 001°56'0 0.0
2019-Jun-19 18:30N 43°19' W 001°56'0 0.0
2019-Jun-19 18:01N 43°19' W 001°56'0 0.0
2019-Jun-19 17:31N 43°19' W 001°56'0 0.0
2019-Jun-19 17:00N 43°19' W 001°56'0 0.0
2019-Jun-19 16:30N 43°19' W 001°56'0 0.0
2019-Jun-19 16:00N 43°19' W 001°56'0 0.0
2019-Jun-19 15:31N 43°19' W 001°56'0 0.0
2019-Jun-19 15:01N 43°19' W 001°56'1 2.3
2019-Jun-19 14:31N 43°20' W 001°56'2 3.9
2019-Jun-19 14:01N 43°22' W 001°57'3 5.3
2019-Jun-19 13:31N 43°25' W 001°58'2 3.6
2019-Jun-19 13:00N 43°26' W 001°59'1 2.5
2019-Jun-19 12:31N 43°25' W 002°00'1 2.2
2019-Jun-19 12:01N 43°24' W 002°01'0 0.5
2019-Jun-19 11:31N 43°25' W 002°01'0 0.3
2019-Jun-19 11:01N 43°25' W 002°01'3 5.3
2019-Jun-19 10:31N 43°27' W 001°58'0 0.8
2019-Jun-19 10:01N 43°27' W 001°58'1 2.9
2019-Jun-19 09:30N 43°26' W 001°60'2 3.6
2019-Jun-19 09:01N 43°25' W 002°01'4 7.1
2019-Jun-19 08:31N 43°28' W 001°58'1 1.4
2019-Jun-19 08:01N 43°27' W 001°58'1 2.9
2019-Jun-19 07:31N 43°26' W 001°60'2 3.5
2019-Jun-19 07:01N 43°25' W 002°01'5 9.4
2019-Jun-19 06:30N 43°21' W 001°57'2 0.8
2019-Jun-19 03:50N 43°19' W 001°56'0 0.0
2019-Jun-19 03:27N 43°19' W 001°56'0 0.0
2019-Jun-19 02:51N 43°19' W 001°56'0 0.0
2019-Jun-19 02:00N 43°19' W 001°56'0 0.0
2019-Jun-19 01:31N 43°19' W 001°56'0 0.0
2019-Jun-19 01:00N 43°19' W 001°56'0 0.0
2019-Jun-19 00:31N 43°19' W 001°56'0 0.0
2019-Jun-19 00:00N 43°19' W 001°56'0 0.0
2019-Jun-18 23:30N 43°19' W 001°56'0 0.0
2019-Jun-18 23:01N 43°19' W 001°56'0 0.0
2019-Jun-18 22:30N 43°19' W 001°56'0 0.0
2019-Jun-18 22:00N 43°19' W 001°56'0 0.0
2019-Jun-18 21:31N 43°19' W 001°56'0 0.0
2019-Jun-18 21:01N 43°19' W 001°56'0 0.0
2019-Jun-18 20:31N 43°19' W 001°56'0 0.0
2019-Jun-18 20:00N 43°19' W 001°56'0 0.0
2019-Jun-18 19:30N 43°19' W 001°56'0 0.0
2019-Jun-18 19:00N 43°19' W 001°56'0 0.0
2019-Jun-18 18:30N 43°19' W 001°56'0 0.0
2019-Jun-18 18:00N 43°19' W 001°56'0 0.0
2019-Jun-18 17:30N 43°19' W 001°56'0 0.0
2019-Jun-18 17:00N 43°19' W 001°56'0 0.0
2019-Jun-18 16:31N 43°19' W 001°56'2 5.0
2019-Jun-18 16:00N 43°22' W 001°56'510.2
2019-Jun-18 15:31N 43°27' W 001°57'1 1.3
2019-Jun-18 15:01N 43°27' W 001°58'1 2.9
2019-Jun-18 14:31N 43°26' W 001°59'2 3.6
2019-Jun-18 14:01N 43°25' W 002°01'4 7.6
2019-Jun-18 13:31N 43°28' W 001°57'1 1.6
2019-Jun-18 13:01N 43°27' W 001°58'1 2.9
2019-Jun-18 12:31N 43°26' W 001°60'2 3.5
2019-Jun-18 12:01N 43°25' W 002°02'0 0.1
2019-Jun-18 11:31N 43°25' W 002°02'0 0.1
2019-Jun-18 11:01N 43°25' W 002°01'3 5.9
2019-Jun-18 10:31N 43°27' W 001°59'1 1.0
2019-Jun-18 10:01N 43°27' W 001°59'1 2.3
2019-Jun-18 09:31N 43°26' W 001°60'2 3.4
2019-Jun-18 09:01N 43°25' W 002°01'1 2.8
2019-Jun-18 08:31N 43°26' W 002°00'2 3.8
2019-Jun-18 08:01N 43°27' W 001°59'1 2.2
2019-Jun-18 07:30N 43°26' W 001°59'2 3.6
2019-Jun-18 07:01N 43°25' W 002°01'3 6.6
2019-Jun-18 06:31N 43°22' W 001°58'4 7.2
2019-Jun-18 06:01N 43°19' W 001°56'0 0.0
2019-Jun-18 05:30N 43°19' W 001°56'0 0.0
2019-Jun-18 05:01N 43°19' W 001°56'0 0.0
2019-Jun-18 04:31N 43°19' W 001°56'0 0.0
2019-Jun-18 04:01N 43°19' W 001°56'0 0.0
2019-Jun-18 03:30N 43°19' W 001°56'0 0.0
2019-Jun-18 03:01N 43°19' W 001°56'0 0.0
2019-Jun-18 02:30N 43°19' W 001°56'0 0.0
2019-Jun-18 02:01N 43°19' W 001°56'0 0.0
2019-Jun-18 01:30N 43°19' W 001°56'0 0.0
2019-Jun-18 01:01N 43°19' W 001°56'0 0.0
2019-Jun-18 00:31N 43°19' W 001°56'0 0.0
2019-Jun-18 00:01N 43°19' W 001°56'0 0.0
2019-Jun-17 23:31N 43°19' W 001°56'0 0.0
2019-Jun-17 23:01N 43°19' W 001°56'0 0.0
2019-Jun-17 22:31N 43°19' W 001°56'0 0.0
2019-Jun-17 22:00N 43°19' W 001°56'0 0.0
2019-Jun-17 21:48N 43°19' W 001°56'0 0.0
2019-Jun-17 21:45N 43°19' W 001°56'0 0.0
2019-Jun-17 21:37N 43°19' W 001°56'0 0.0
2019-Jun-17 21:21N 43°19' W 001°56'0 0.0
2019-Jun-17 21:00N 43°19' W 001°56'0 0.0
2019-Jun-17 20:30N 43°19' W 001°56'0 0.0
2019-Jun-17 20:00N 43°19' W 001°56'6 0.3
2019-Jun-16 23:31N 43°25' W 001°57'0 0.8
2019-Jun-16 23:01N 43°25' W 001°58'0 0.7
2019-Jun-16 22:31N 43°25' W 001°58'0 0.6
2019-Jun-16 22:01N 43°25' W 001°59'0 0.5
2019-Jun-16 21:31N 43°25' W 001°59'0 0.4
2019-Jun-16 21:01N 43°25' W 001°59'0 0.5
2019-Jun-16 20:31N 43°26' W 001°59'2 4.0
2019-Jun-16 20:01N 43°28' W 001°59'1 2.4
2019-Jun-16 19:31N 43°26' W 001°59'1 1.9
2019-Jun-16 19:01N 43°27' W 001°59'1 2.1
2019-Jun-16 18:31N 43°26' W 001°59'2 3.1
2019-Jun-16 18:01N 43°25' W 002°01'1 3.0
2019-Jun-16 17:31N 43°24' W 002°03'0 0.4
2019-Jun-16 17:01N 43°24' W 002°02'0 0.5
2019-Jun-16 16:31N 43°24' W 002°02'0 0.5
2019-Jun-16 16:01N 43°25' W 002°02'0 0.7
2019-Jun-16 15:31N 43°25' W 002°01'0 0.7
2019-Jun-16 15:01N 43°25' W 002°01'0 0.7
2019-Jun-16 14:31N 43°25' W 002°00'0 0.7
2019-Jun-16 14:01N 43°25' W 002°00'2 3.2
2019-Jun-16 13:31N 43°27' W 001°59'0 0.9
2019-Jun-16 13:01N 43°27' W 001°59'1 2.2
2019-Jun-16 12:31N 43°26' W 001°60'2 3.5
2019-Jun-16 12:01N 43°25' W 002°01'0 0.6
2019-Jun-16 11:31N 43°24' W 002°02'0 0.5
2019-Jun-16 11:01N 43°25' W 002°01'3 6.8
2019-Jun-16 10:31N 43°28' W 001°60'1 2.8
2019-Jun-16 10:00N 43°27' W 001°58'1 2.7
2019-Jun-16 09:31N 43°26' W 001°60'1 2.5
2019-Jun-16 09:01N 43°25' W 002°01'3 6.4
2019-Jun-16 08:31N 43°28' W 001°59'1 2.4
2019-Jun-16 08:01N 43°27' W 001°58'1 2.8
2019-Jun-16 07:31N 43°26' W 001°60'2 3.5
2019-Jun-16 07:00N 43°25' W 002°01'5 9.7
2019-Jun-16 06:31N 43°21' W 001°57'2 3.1
2019-Jun-16 05:56N 43°19' W 001°56'0 0.0
2019-Jun-16 04:41N 43°19' W 001°56'0 0.0
2019-Jun-16 04:22N 43°19' W 001°56'0 0.0
2019-Jun-16 03:57N 43°19' W 001°56'0 0.0
2019-Jun-16 03:10N 43°19' W 001°56'0 0.0
2019-Jun-16 02:51N 43°19' W 001°56'0 0.0
2019-Jun-16 02:21N 43°19' W 001°56'0 0.0
2019-Jun-16 01:52N 43°19' W 001°56'0 0.0
2019-Jun-16 01:29N 43°19' W 001°56'0 0.0
2019-Jun-16 01:01N 43°19' W 001°56'0 0.0
2019-Jun-16 00:30N 43°19' W 001°56'0 0.0
2019-Jun-16 00:00N 43°19' W 001°56'0 0.0
2019-Jun-15 23:30N 43°19' W 001°56'0 0.0
2019-Jun-15 23:01N 43°19' W 001°56'0 0.0
2019-Jun-15 22:31N 43°19' W 001°56'0 0.0
2019-Jun-15 22:01N 43°19' W 001°56'4 7.6
2019-Jun-15 21:30N 43°23' W 001°57'4 7.6
2019-Jun-15 21:00N 43°27' W 001°59'1 2.5
2019-Jun-15 20:31N 43°26' W 001°60'2 3.0
2019-Jun-15 20:00N 43°25' W 002°01'0 0.7
2019-Jun-15 19:31N 43°25' W 002°01'2 3.4
2019-Jun-15 19:01N 43°26' W 001°59'0 0.4
2019-Jun-15 18:31N 43°26' W 001°60'1 2.8
2019-Jun-15 18:01N 43°25' W 002°01'3 6.5
2019-Jun-15 17:31N 43°22' W 001°58'4 7.3
2019-Jun-15 17:00N 43°19' W 001°56'0 0.0
2019-Jun-15 16:30N 43°19' W 001°56'0 0.0
2019-Jun-15 16:00N 43°19' W 001°56'0 0.0
2019-Jun-15 15:30N 43°19' W 001°56'0 0.0
2019-Jun-15 15:00N 43°19' W 001°56'0 0.0
2019-Jun-15 14:30N 43°19' W 001°56'0 0.0
2019-Jun-15 14:00N 43°19' W 001°56'0 0.0
2019-Jun-15 13:30N 43°19' W 001°56'0 0.0
2019-Jun-15 13:00N 43°19' W 001°56'0 0.0
2019-Jun-15 12:31N 43°19' W 001°56'0 0.0
2019-Jun-15 12:00N 43°19' W 001°56'0 0.0
2019-Jun-15 11:30N 43°19' W 001°56'0 0.0
2019-Jun-15 10:59N 43°19' W 001°56'0 0.0
2019-Jun-15 10:31N 43°19' W 001°56'0 0.0
2019-Jun-15 10:00N 43°19' W 001°56'0 0.0
2019-Jun-15 09:30N 43°19' W 001°56'0 0.0
2019-Jun-15 08:59N 43°19' W 001°56'0 0.0
2019-Jun-15 08:30N 43°19' W 001°56'0 0.0
2019-Jun-15 07:45N 43°19' W 001°56'0 0.0
2019-Jun-15 07:28N 43°19' W 001°56'0 0.0
2019-Jun-15 07:00N 43°19' W 001°56'0 0.0
2019-Jun-15 06:30N 43°19' W 001°56'0 0.0
2019-Jun-15 06:01N 43°19' W 001°56'0 0.0
2019-Jun-15 05:30N 43°19' W 001°56'0 0.0
2019-Jun-15 05:00N 43°19' W 001°56'0 0.0
2019-Jun-15 04:30N 43°19' W 001°56'0 0.0
2019-Jun-15 04:00N 43°19' W 001°56'0 0.0
2019-Jun-15 03:30N 43°19' W 001°56'0 0.0
2019-Jun-15 02:57N 43°19' W 001°56'0 0.0
2019-Jun-15 02:29N 43°19' W 001°56'0 0.0
2019-Jun-15 01:51N 43°19' W 001°56'0 0.0
2019-Jun-15 01:31N 43°19' W 001°56'0 0.0
2019-Jun-15 01:00N 43°19' W 001°56'0 0.0
2019-Jun-15 00:29N 43°19' W 001°56'0 0.0
2019-Jun-14 23:58N 43°19' W 001°56'0 0.0
2019-Jun-14 23:29N 43°19' W 001°56'0 0.0
2019-Jun-14 23:00N 43°19' W 001°56'0 0.0
2019-Jun-14 22:30N 43°19' W 001°56'0 0.0
2019-Jun-14 21:58N 43°19' W 001°56'0 0.0
2019-Jun-14 21:30N 43°19' W 001°56'0 0.0
2019-Jun-14 21:00N 43°19' W 001°56'0 0.0
2019-Jun-14 20:30N 43°19' W 001°56'0 0.0
2019-Jun-14 20:00N 43°19' W 001°56'0 0.0
2019-Jun-14 19:29N 43°19' W 001°56'0 0.0
2019-Jun-14 18:58N 43°19' W 001°56'0 0.0
2019-Jun-14 18:28N 43°19' W 001°56'0 0.0
2019-Jun-14 18:00N 43°19' W 001°56'0 0.0
2019-Jun-14 17:30N 43°19' W 001°56'0 0.0
2019-Jun-14 17:01N 43°19' W 001°56'0 0.0
2019-Jun-14 16:31N 43°19' W 001°56'0 0.0
2019-Jun-14 16:00N 43°19' W 001°56'0 0.0
2019-Jun-14 15:30N 43°19' W 001°56'2 3.3
2019-Jun-14 15:01N 43°21' W 001°56'1 2.7
2019-Jun-14 14:31N 43°22' W 001°58'0 0.1
2019-Jun-14 14:01N 43°22' W 001°58'0 0.1
2019-Jun-14 13:31N 43°22' W 001°58'1 2.1
2019-Jun-14 13:01N 43°22' W 001°57'4 8.0
2019-Jun-14 12:31N 43°25' W 001°54'510.4
2019-Jun-14 12:01N 43°30' W 001°51'510.7
2019-Jun-14 11:31N 43°35' W 001°49'510.8
2019-Jun-14 11:01N 43°40' W 001°47'510.7
2019-Jun-14 10:30N 43°45' W 001°44'5 9.1
2019-Jun-14 10:00N 43°50' W 001°43'1 2.6
2019-Jun-14 09:31N 43°51' W 001°44'1 1.6
2019-Jun-14 09:01N 43°50' W 001°44'1 2.9
2019-Jun-14 08:31N 43°48' W 001°44'1 1.7
2019-Jun-14 08:01N 43°48' W 001°43'3 5.7
2019-Jun-14 07:31N 43°50' W 001°41'1 2.8
2019-Jun-14 07:01N 43°49' W 001°41'2 3.7
2019-Jun-14 06:31N 43°47' W 001°41'1 1.3
2019-Jun-14 06:01N 43°46' W 001°41'1 1.1
2019-Jun-14 05:31N 43°46' W 001°42'3 5.8
2019-Jun-14 05:01N 43°43' W 001°44'3 6.0
2019-Jun-14 04:30N 43°40' W 001°46'3 6.2
2019-Jun-14 04:00N 43°38' W 001°48'3 5.9
2019-Jun-14 03:31N 43°35' W 001°50'3 6.0
2019-Jun-14 03:01N 43°32' W 001°52'3 6.0
2019-Jun-14 02:31N 43°30' W 001°54'3 5.2
2019-Jun-14 02:01N 43°28' W 001°56'3 5.1
2019-Jun-14 01:31N 43°26' W 001°58'2 4.6
2019-Jun-14 01:00N 43°24' W 001°59'2 3.1
2019-Jun-14 00:31N 43°22' W 001°60'0 0.4
2019-Jun-14 00:01N 43°22' W 001°60'0 0.5
2019-Jun-13 23:31N 43°22' W 002°00'0 0.5
2019-Jun-13 23:00N 43°23' W 002°00'0 0.6
2019-Jun-13 22:31N 43°23' W 002°01'0 0.7
2019-Jun-13 22:00N 43°23' W 002°01'0 0.7
2019-Jun-13 21:31N 43°23' W 002°01'0 0.7
2019-Jun-13 21:01N 43°24' W 002°02'6 3.3
2019-Jun-13 19:11N 43°28' W 001°56'0 2.2
2019-Jun-13 19:00N 43°28' W 001°56'1 2.7
2019-Jun-13 18:30N 43°28' W 001°58'2 3.5
2019-Jun-13 18:01N 43°28' W 002°01'1 1.9
2019-Jun-13 17:31N 43°28' W 001°59'2 4.3
2019-Jun-13 17:01N 43°28' W 001°57'0 0.1
2019-Jun-13 16:31N 43°28' W 001°57'0 0.5
2019-Jun-13 16:01N 43°28' W 001°57'0 0.4
2019-Jun-13 15:31N 43°28' W 001°57'0 0.4
2019-Jun-13 15:00N 43°28' W 001°57'0 0.3
2019-Jun-13 14:31N 43°28' W 001°58'0 0.3
2019-Jun-13 14:01N 43°28' W 001°58'0 0.2
2019-Jun-13 13:30N 43°28' W 001°58'1 2.4
2019-Jun-13 13:01N 43°27' W 001°57'1 2.3
2019-Jun-13 12:30N 43°27' W 001°59'2 3.7
2019-Jun-13 12:01N 43°26' W 002°01'1 1.1
2019-Jun-13 11:31N 43°25' W 002°01'2 4.4
2019-Jun-13 11:01N 43°25' W 001°58'1 2.7
2019-Jun-13 10:31N 43°26' W 001°58'1 2.2
2019-Jun-13 10:01N 43°27' W 001°56'1 2.5
2019-Jun-13 09:31N 43°27' W 001°58'2 3.3
2019-Jun-13 09:01N 43°26' W 002°00'2 3.7
2019-Jun-13 08:31N 43°27' W 001°59'1 1.1
2019-Jun-13 08:01N 43°27' W 001°58'1 2.3
2019-Jun-13 07:31N 43°26' W 001°59'2 4.0
2019-Jun-13 07:01N 43°25' W 002°01'5 9.1
2019-Jun-13 06:31N 43°21' W 001°57'2 4.2
2019-Jun-13 06:00N 43°19' W 001°56'0 0.0
2019-Jun-13 05:30N 43°19' W 001°56'0 0.0
2019-Jun-13 05:01N 43°19' W 001°56'0 0.0
2019-Jun-13 04:31N 43°19' W 001°56'0 0.0
2019-Jun-13 04:00N 43°19' W 001°56'0 0.0
2019-Jun-13 03:31N 43°19' W 001°56'0 0.0
2019-Jun-13 03:01N 43°19' W 001°56'0 0.0
2019-Jun-13 02:31N 43°19' W 001°56'0 0.0
2019-Jun-13 02:00N 43°19' W 001°56'0 0.0
2019-Jun-13 01:30N 43°19' W 001°56'0 0.0
2019-Jun-13 01:00N 43°19' W 001°56'0 0.0
2019-Jun-13 00:30N 43°19' W 001°56'0 0.0
2019-Jun-12 23:59N 43°19' W 001°56'0 0.0
2019-Jun-12 23:29N 43°19' W 001°56'0 0.0
2019-Jun-12 21:52N 43°19' W 001°56'0 0.0
2019-Jun-12 21:27N 43°19' W 001°56'0 0.0
2019-Jun-12 20:59N 43°19' W 001°56'0 0.0
2019-Jun-12 20:30N 43°19' W 001°56'0 0.0
2019-Jun-12 20:00N 43°19' W 001°56'0 0.0
2019-Jun-12 19:29N 43°19' W 001°56'0 0.0
2019-Jun-12 19:00N 43°19' W 001°56'0 0.0
2019-Jun-12 18:31N 43°19' W 001°56'0 0.0
2019-Jun-12 18:00N 43°19' W 001°56'0 0.0
2019-Jun-12 17:30N 43°19' W 001°56'0 0.0
2019-Jun-12 17:01N 43°19' W 001°56'0 0.0
2019-Jun-12 16:30N 43°19' W 001°56'0 0.0
2019-Jun-12 16:00N 43°19' W 001°56'0 0.0
2019-Jun-12 15:31N 43°19' W 001°56'0 0.0
2019-Jun-12 15:01N 43°19' W 001°56'0 0.0
2019-Jun-12 14:29N 43°19' W 001°56'0 0.0
2019-Jun-12 14:00N 43°19' W 001°56'0 0.0
2019-Jun-12 13:28N 43°19' W 001°56'0 0.0
2019-Jun-12 13:00N 43°19' W 001°56'0 0.0
2019-Jun-12 12:30N 43°19' W 001°56'0 0.0
2019-Jun-12 12:00N 43°19' W 001°56'0 0.0
2019-Jun-12 11:29N 43°19' W 001°56'0 0.0
2019-Jun-12 10:58N 43°19' W 001°56'0 0.0
2019-Jun-12 10:29N 43°19' W 001°56'0 0.0
2019-Jun-12 10:00N 43°19' W 001°56'0 0.0
2019-Jun-12 09:29N 43°19' W 001°56'0 0.0
2019-Jun-12 09:00N 43°19' W 001°56'0 0.0
2019-Jun-12 08:29N 43°19' W 001°56'0 0.0
2019-Jun-12 08:00N 43°19' W 001°56'0 0.0
2019-Jun-12 07:30N 43°19' W 001°56'0 0.0
2019-Jun-12 07:00N 43°19' W 001°56'0 0.0
2019-Jun-12 06:31N 43°19' W 001°56'0 0.0
2019-Jun-12 06:01N 43°19' W 001°56'0 0.0
2019-Jun-12 05:31N 43°19' W 001°56'0 0.0
2019-Jun-12 05:01N 43°19' W 001°56'0 0.0
2019-Jun-12 04:30N 43°19' W 001°56'0 0.0
2019-Jun-12 04:00N 43°19' W 001°56'0 0.0
2019-Jun-12 03:30N 43°19' W 001°56'0 0.0
2019-Jun-12 02:52N 43°19' W 001°56'0 0.0
2019-Jun-12 02:01N 43°19' W 001°56'0 0.0
2019-Jun-12 01:30N 43°19' W 001°56'0 0.0
2019-Jun-12 01:00N 43°19' W 001°56'0 0.0
2019-Jun-12 00:30N 43°19' W 001°56'0 0.0
2019-Jun-12 00:00N 43°19' W 001°56'0 0.0
2019-Jun-11 23:30N 43°19' W 001°56'0 0.0
2019-Jun-11 23:00N 43°19' W 001°56'0 0.0
2019-Jun-11 22:30N 43°19' W 001°56'0 0.0
2019-Jun-11 22:00N 43°19' W 001°56'0 0.0
2019-Jun-11 21:30N 43°19' W 001°56'0 0.0
2019-Jun-11 21:00N 43°19' W 001°56'0 0.0
2019-Jun-11 20:31N 43°19' W 001°56'0 0.0
2019-Jun-11 20:00N 43°19' W 001°56'0 0.0
2019-Jun-11 19:31N 43°19' W 001°56'0 0.0
2019-Jun-11 19:00N 43°19' W 001°56'0 0.0
2019-Jun-11 18:30N 43°19' W 001°56'0 0.0
2019-Jun-11 18:00N 43°19' W 001°56'0 0.0
2019-Jun-11 17:30N 43°19' W 001°56'0 0.0
2019-Jun-11 15:49N 43°19' W 001°56'0 0.0
2019-Jun-11 15:30N 43°19' W 001°56'0 0.0
2019-Jun-11 15:00N 43°19' W 001°56'0 0.0
2019-Jun-11 14:30N 43°19' W 001°56'0 0.0
2019-Jun-11 14:00N 43°19' W 001°56'0 0.0
2019-Jun-11 13:30N 43°19' W 001°56'0 0.0
2019-Jun-11 13:00N 43°19' W 001°56'0 0.0
2019-Jun-11 12:30N 43°19' W 001°56'0 0.0
2019-Jun-11 11:46N 43°19' W 001°56'0 0.0
2019-Jun-11 11:25N 43°19' W 001°56'0 0.0
2019-Jun-11 10:59N 43°19' W 001°56'0 0.0
2019-Jun-11 10:27N 43°19' W 001°56'0 0.0
2019-Jun-11 10:00N 43°19' W 001°56'0 0.0
2019-Jun-11 09:30N 43°19' W 001°56'0 0.0
2019-Jun-11 09:00N 43°19' W 001°56'0 0.0
2019-Jun-11 08:30N 43°19' W 001°56'0 0.0
2019-Jun-11 08:00N 43°19' W 001°56'0 0.0
2019-Jun-11 07:29N 43°19' W 001°56'0 0.0
2019-Jun-11 07:00N 43°19' W 001°56'0 0.0
2019-Jun-11 06:30N 43°19' W 001°56'0 0.0
2019-Jun-11 06:00N 43°19' W 001°56'0 0.0
2019-Jun-11 05:30N 43°19' W 001°56'0 0.0
2019-Jun-11 05:00N 43°19' W 001°56'0 0.0
2019-Jun-11 04:30N 43°19' W 001°56'0 0.0
2019-Jun-11 04:01N 43°19' W 001°56'0 0.0
2019-Jun-11 03:29N 43°19' W 001°56'0 0.0
2019-Jun-11 03:00N 43°19' W 001°56'0 0.0
2019-Jun-11 02:30N 43°19' W 001°56'0 0.0
2019-Jun-11 02:00N 43°19' W 001°56'0 0.0
2019-Jun-11 01:30N 43°19' W 001°56'0 0.0
2019-Jun-11 01:01N 43°19' W 001°56'0 0.0
2019-Jun-11 00:31N 43°19' W 001°56'0 0.0
2019-Jun-11 00:00N 43°19' W 001°56'0 0.0
2019-Jun-10 23:30N 43°19' W 001°56'0 0.0
2019-Jun-10 23:00N 43°19' W 001°56'0 0.0
2019-Jun-10 22:30N 43°19' W 001°56'0 0.0
2019-Jun-10 22:00N 43°19' W 001°56'0 0.0
2019-Jun-10 21:30N 43°19' W 001°56'0 0.0
2019-Jun-10 21:00N 43°19' W 001°56'0 0.0
2019-Jun-10 19:59N 43°19' W 001°56'0 0.0
2019-Jun-10 19:05N 43°19' W 001°56'0 4.7
2019-Jun-10 19:00N 43°19' W 001°55'5 9.3
2019-Jun-10 18:31N 43°24' W 001°55'510.5
2019-Jun-10 18:01N 43°29' W 001°53'510.8
2019-Jun-10 17:30N 43°35' W 001°51'510.7
2019-Jun-10 17:01N 43°40' W 001°49'611.1
2019-Jun-10 16:31N 43°45' W 001°48'611.0
2019-Jun-10 16:00N 43°50' W 001°46'510.8
2019-Jun-10 15:30N 43°56' W 001°44'2 4.1
2019-Jun-10 15:00N 43°58' W 001°44'1 2.9
2019-Jun-10 14:31N 43°59' W 001°43'2 3.4
2019-Jun-10 14:00N 44°01' W 001°43'3 6.6
2019-Jun-10 13:31N 43°60' W 001°38'1 2.5
2019-Jun-10 13:00N 43°59' W 001°39'1 2.9
2019-Jun-10 12:31N 43°57' W 001°39'1 2.4
2019-Jun-10 12:00N 43°56' W 001°39'2 4.2
2019-Jun-10 11:30N 43°55' W 001°36'1 2.5
2019-Jun-10 11:01N 43°56' W 001°38'2 4.9
2019-Jun-10 10:30N 43°57' W 001°41'1 1.2
2019-Jun-10 10:01N 43°56' W 001°40'1 2.2
2019-Jun-10 09:30N 43°55' W 001°41'1 2.9
2019-Jun-10 09:01N 43°54' W 001°41'2 3.3
2019-Jun-10 08:31N 43°52' W 001°41'1 2.5
2019-Jun-10 08:01N 43°51' W 001°41'1 2.7
2019-Jun-10 07:31N 43°50' W 001°41'1 2.9
2019-Jun-10 07:00N 43°48' W 001°41'2 3.6
2019-Jun-10 06:31N 43°46' W 001°41'1 2.2
2019-Jun-10 06:01N 43°48' W 001°41'1 1.9
2019-Jun-10 05:31N 43°47' W 001°42'3 5.5
2019-Jun-10 05:01N 43°44' W 001°43'3 5.6
2019-Jun-10 04:31N 43°42' W 001°45'3 5.7
2019-Jun-10 04:01N 43°39' W 001°47'3 5.7
2019-Jun-10 03:30N 43°37' W 001°49'3 5.2
2019-Jun-10 03:00N 43°34' W 001°51'2 4.9
2019-Jun-10 02:31N 43°32' W 001°53'2 4.4
2019-Jun-10 02:00N 43°30' W 001°54'2 4.4
2019-Jun-10 01:31N 43°29' W 001°56'2 4.3
2019-Jun-10 01:01N 43°27' W 001°57'1 3.0
2019-Jun-10 00:31N 43°28' W 001°58'2 3.8
2019-Jun-10 00:01N 43°26' W 001°57'1 1.2
2019-Jun-09 23:31N 43°26' W 001°57'2 4.6
2019-Jun-09 23:01N 43°28' W 001°58'0 0.9
2019-Jun-09 22:31N 43°27' W 001°58'2 3.9
2019-Jun-09 22:00N 43°26' W 001°56'1 2.4
2019-Jun-09 21:30N 43°27' W 001°57'1 2.7
2019-Jun-09 21:00N 43°25' W 001°56'1 2.7
2019-Jun-09 20:31N 43°27' W 001°57'0 0.8
2019-Jun-09 20:01N 43°27' W 001°57'1 1.8
2019-Jun-09 19:30N 43°27' W 001°57'1 1.4
2019-Jun-09 19:01N 43°27' W 001°58'1 2.8
2019-Jun-09 18:31N 43°26' W 001°60'2 3.4
2019-Jun-09 18:01N 43°25' W 002°01'1 1.4
2019-Jun-09 17:31N 43°24' W 002°00'2 3.1
2019-Jun-09 17:00N 43°25' W 002°02'2 3.6
2019-Jun-09 16:31N 43°25' W 002°00'1 2.0
2019-Jun-09 16:01N 43°25' W 002°01'0 0.2
2019-Jun-09 15:31N 43°25' W 002°01'1 2.9
2019-Jun-09 15:01N 43°24' W 001°59'2 3.8
2019-Jun-09 14:31N 43°26' W 002°00'1 2.8
2019-Jun-09 14:01N 43°27' W 001°59'1 1.7
2019-Jun-09 13:31N 43°27' W 001°58'1 2.1
2019-Jun-09 13:01N 43°26' W 001°59'2 3.2
2019-Jun-09 12:31N 43°25' W 002°00'1 1.7
2019-Jun-09 12:01N 43°25' W 002°01'1 1.9
2019-Jun-09 11:31N 43°25' W 002°00'3 5.4
2019-Jun-09 11:01N 43°28' W 001°59'1 1.4
2019-Jun-09 10:31N 43°27' W 001°58'1 2.3
2019-Jun-09 10:01N 43°26' W 001°59'2 3.6
2019-Jun-09 09:30N 43°25' W 002°01'3 6.7
2019-Jun-09 09:01N 43°27' W 001°57'1 1.6
2019-Jun-09 08:31N 43°27' W 001°58'1 2.9
2019-Jun-09 08:01N 43°26' W 001°60'2 3.4
2019-Jun-09 07:31N 43°25' W 002°01'0 0.4
2019-Jun-09 07:01N 43°24' W 002°01'4 8.1
2019-Jun-09 06:31N 43°21' W 001°57'2 0.8
2019-Jun-09 03:24N 43°19' W 001°56'0 0.0
2019-Jun-08 23:54N 43°19' W 001°56'0 0.0
2019-Jun-08 21:53N 43°19' W 001°56'0 0.0
2019-Jun-08 21:30N 43°19' W 001°56'0 0.0
2019-Jun-08 20:59N 43°19' W 001°56'0 0.0
2019-Jun-08 20:29N 43°19' W 001°56'2 4.0
2019-Jun-08 20:00N 43°21' W 001°56'5 9.7
2019-Jun-08 19:31N 43°26' W 001°57'1 2.1
2019-Jun-08 19:01N 43°27' W 001°58'1 2.8
2019-Jun-08 18:31N 43°26' W 001°60'1 2.7
2019-Jun-08 18:01N 43°25' W 002°01'0 0.3
2019-Jun-08 17:31N 43°25' W 002°01'1 1.1
2019-Jun-08 17:01N 43°25' W 002°01'1 2.0
2019-Jun-08 16:31N 43°26' W 002°00'1 2.8
2019-Jun-08 16:01N 43°26' W 001°58'1 2.2
2019-Jun-08 15:31N 43°27' W 001°58'1 1.4
2019-Jun-08 15:00N 43°27' W 001°58'1 2.8
2019-Jun-08 14:31N 43°26' W 001°60'1 2.7
2019-Jun-08 14:00N 43°24' W 001°60'3 6.8
2019-Jun-08 13:31N 43°28' W 001°59'1 2.3
2019-Jun-08 13:01N 43°27' W 001°58'1 2.5
2019-Jun-08 12:31N 43°26' W 001°60'2 3.4
2019-Jun-08 12:01N 43°24' W 002°01'1 2.0
2019-Jun-08 11:31N 43°25' W 002°01'1 2.2
2019-Jun-08 11:01N 43°25' W 001°59'1 1.1
2019-Jun-08 10:31N 43°26' W 001°59'1 3.0
2019-Jun-08 10:01N 43°27' W 002°01'2 4.3
2019-Jun-08 09:30N 43°26' W 001°58'1 1.6
2019-Jun-08 09:01N 43°26' W 001°59'1 2.6
2019-Jun-08 08:31N 43°28' W 001°59'1 1.9
2019-Jun-08 08:01N 43°27' W 001°58'1 2.6
2019-Jun-08 07:30N 43°26' W 001°60'2 3.4
2019-Jun-08 07:01N 43°24' W 002°01'4 8.2
2019-Jun-08 06:31N 43°21' W 001°57'2 4.1
2019-Jun-08 06:00N 43°19' W 001°56'0 0.0
2019-Jun-08 05:31N 43°19' W 001°56'0 0.0
2019-Jun-08 05:01N 43°19' W 001°56'0 0.0
2019-Jun-08 04:30N 43°19' W 001°56'0 0.0
2019-Jun-08 04:00N 43°19' W 001°56'0 0.0
2019-Jun-08 03:30N 43°19' W 001°56'0 0.0
2019-Jun-08 03:01N 43°19' W 001°56'0 0.0
2019-Jun-08 02:31N 43°19' W 001°56'0 0.0
2019-Jun-08 02:00N 43°19' W 001°56'0 0.0
2019-Jun-08 01:30N 43°19' W 001°56'0 0.0
2019-Jun-08 01:00N 43°19' W 001°56'0 0.0
2019-Jun-08 00:30N 43°19' W 001°56'0 0.0
2019-Jun-08 00:00N 43°19' W 001°56'0 0.0
2019-Jun-07 23:30N 43°19' W 001°56'0 0.0
2019-Jun-07 23:00N 43°19' W 001°56'0 0.0
2019-Jun-07 22:30N 43°19' W 001°56'0 0.0
2019-Jun-07 22:01N 43°19' W 001°56'0 0.0
2019-Jun-07 21:30N 43°19' W 001°56'0 0.0
2019-Jun-07 21:00N 43°19' W 001°56'0 0.0
2019-Jun-07 20:30N 43°19' W 001°56'0 0.0
2019-Jun-07 20:01N 43°19' W 001°56'0 0.0
2019-Jun-07 19:31N 43°19' W 001°56'0 0.0
2019-Jun-07 19:00N 43°19' W 001°56'0 0.0
2019-Jun-07 18:31N 43°19' W 001°56'0 0.0
2019-Jun-07 18:00N 43°19' W 001°56'0 0.0
2019-Jun-07 17:30N 43°19' W 001°56'0 0.0
2019-Jun-07 17:00N 43°19' W 001°56'0 0.0
2019-Jun-07 16:30N 43°19' W 001°56'0 0.0
2019-Jun-07 16:00N 43°19' W 001°56'0 0.0
2019-Jun-07 15:31N 43°19' W 001°56'0 0.0
2019-Jun-07 15:00N 43°19' W 001°56'0 0.0
2019-Jun-07 14:30N 43°19' W 001°56'0 0.0
2019-Jun-07 14:00N 43°19' W 001°56'0 0.0
2019-Jun-07 13:31N 43°19' W 001°56'0 0.0
2019-Jun-07 13:00N 43°19' W 001°56'0 0.0
2019-Jun-07 12:30N 43°19' W 001°56'0 0.0
2019-Jun-07 12:00N 43°19' W 001°56'0 0.0
2019-Jun-07 11:30N 43°19' W 001°56'0 0.0
2019-Jun-07 11:01N 43°19' W 001°56'0 0.0
2019-Jun-07 10:30N 43°19' W 001°56'0 0.0
2019-Jun-07 10:00N 43°19' W 001°56'0 0.0
2019-Jun-07 09:30N 43°19' W 001°56'0 0.0
2019-Jun-07 09:00N 43°19' W 001°56'0 0.0
2019-Jun-07 08:30N 43°19' W 001°56'0 0.0
2019-Jun-07 08:00N 43°19' W 001°56'0 0.0
2019-Jun-07 07:31N 43°19' W 001°56'0 0.0
2019-Jun-07 07:01N 43°19' W 001°56'0 0.0
2019-Jun-07 06:30N 43°19' W 001°56'0 0.0
2019-Jun-07 06:01N 43°19' W 001°56'0 0.0
2019-Jun-07 05:30N 43°19' W 001°56'0 0.0
2019-Jun-07 05:01N 43°19' W 001°56'0 0.0
2019-Jun-07 04:31N 43°19' W 001°56'0 0.0
2019-Jun-07 04:00N 43°19' W 001°56'0 0.0
2019-Jun-07 03:30N 43°19' W 001°56'0 0.0
2019-Jun-07 03:00N 43°19' W 001°56'0 0.0
2019-Jun-07 02:31N 43°19' W 001°56'0 0.0
2019-Jun-07 02:01N 43°19' W 001°56'0 0.0
2019-Jun-07 01:30N 43°19' W 001°56'0 0.0
2019-Jun-07 01:00N 43°19' W 001°56'0 0.0
2019-Jun-07 00:26N 43°19' W 001°56'0 0.0
2019-Jun-07 00:00N 43°19' W 001°56'0 0.0
2019-Jun-06 23:29N 43°19' W 001°56'  

Dump ship's entire track history